TAP1824 LPPT-LFBD
Flight info
| Callsign | TAP1824 |
|---|---|
| Flight time | 1h 23m |
| Altitude | 38000 |
| Route | IXIDA DCT TOSDI DCT ZMR N976 DGO/N0402F280 L176 SSN P181 URUNA DCT BTZ DCT VAVIX |
| Aircraft | A320/M-SDE3FGHIRWY/LB1 |
Departure
| Time | 2026-05-05 14:17 |
|---|---|
| Airport | Lisbon Humberto Delgado Airport (LPPT) |
Arrival
| Time | 2026-05-05 15:41 |
|---|---|
| Airport | Bordeaux–Mérignac Airport (LFBD) |
| Time | Latitude | Longitude | Altitude | Speed | Heading |
|---|---|---|---|---|---|
| 2026-05-05 13:46 | 38.77255 | -9.13149 | 337 ft | 0 kts | 77° |
| 2026-05-05 14:06 | 38.77253 | -9.13160 | 334 ft | 4 kts | 79° |
| 2026-05-05 14:06 | 38.77250 | -9.13194 | 337 ft | 4 kts | 91° |
| 2026-05-05 14:07 | 38.77254 | -9.13227 | 338 ft | 4 kts | 121° |
| 2026-05-05 14:07 | 38.77267 | -9.13243 | 338 ft | 1 kts | 168° |
| 2026-05-05 14:07 | 38.77271 | -9.13244 | 338 ft | 0 kts | 168° |
| 2026-05-05 14:10 | 38.77269 | -9.13244 | 338 ft | 2 kts | 168° |
| 2026-05-05 14:10 | 38.77220 | -9.13231 | 338 ft | 8 kts | 168° |
| 2026-05-05 14:11 | 38.77168 | -9.13217 | 338 ft | 10 kts | 168° |
| 2026-05-05 14:11 | 38.77085 | -9.13195 | 338 ft | 12 kts | 168° |
| 2026-05-05 14:11 | 38.77002 | -9.13172 | 338 ft | 15 kts | 166° |
| 2026-05-05 14:11 | 38.76895 | -9.13143 | 339 ft | 14 kts | 167° |
| 2026-05-05 14:12 | 38.76804 | -9.13125 | 339 ft | 10 kts | 199° |
| 2026-05-05 14:12 | 38.76775 | -9.13199 | 340 ft | 12 kts | 258° |
| 2026-05-05 14:12 | 38.76757 | -9.13313 | 342 ft | 13 kts | 258° |
| 2026-05-05 14:12 | 38.76712 | -9.13412 | 350 ft | 16 kts | 212° |
| 2026-05-05 14:13 | 38.76646 | -9.13536 | 345 ft | 19 kts | 257° |
| 2026-05-05 14:13 | 38.76617 | -9.13705 | 346 ft | 20 kts | 256° |
| 2026-05-05 14:13 | 38.76575 | -9.13888 | 346 ft | 22 kts | 251° |
| 2026-05-05 14:13 | 38.76531 | -9.14054 | 357 ft | 17 kts | 236° |
| 2026-05-05 14:14 | 38.76497 | -9.14179 | 352 ft | 15 kts | 284° |
| 2026-05-05 14:14 | 38.76511 | -9.14229 | 341 ft | 0 kts | 293° |
| 2026-05-05 14:15 | 38.76517 | -9.14247 | 340 ft | 5 kts | 294° |
| 2026-05-05 14:15 | 38.76546 | -9.14329 | 337 ft | 14 kts | 294° |
| 2026-05-05 14:16 | 38.76604 | -9.14410 | 336 ft | 10 kts | 349° |
| 2026-05-05 14:16 | 38.76636 | -9.14397 | 336 ft | 4 kts | 27° |
| 2026-05-05 14:16 | 38.76645 | -9.14391 | 334 ft | 4 kts | 27° |
| 2026-05-05 14:16 | 38.76938 | -9.14231 | 351 ft | 84 kts | 22° |
| 2026-05-05 14:17 | 38.77677 | -9.13839 | 364 ft | 143 kts | 22° |
| 2026-05-05 14:17 | 38.78673 | -9.13299 | 811 ft | 155 kts | 20° |
| 2026-05-05 14:17 | 38.79673 | -9.12776 | 1590 ft | 156 kts | 19° |
| 2026-05-05 14:17 | 38.80720 | -9.12218 | 2102 ft | 173 kts | 19° |
| 2026-05-05 14:18 | 38.81867 | -9.11492 | 2474 ft | 197 kts | 34° |
| 2026-05-05 14:18 | 38.82947 | -9.10249 | 2849 ft | 223 kts | 41° |
| 2026-05-05 14:18 | 38.84134 | -9.08790 | 3353 ft | 248 kts | 41° |
| 2026-05-05 14:18 | 38.85400 | -9.07217 | 4048 ft | 262 kts | 42° |
| 2026-05-05 14:19 | 38.86718 | -9.05571 | 5010 ft | 266 kts | 42° |
| 2026-05-05 14:19 | 38.88048 | -9.03906 | 6013 ft | 269 kts | 42° |
| 2026-05-05 14:19 | 38.89394 | -9.02222 | 6991 ft | 272 kts | 42° |
| 2026-05-05 14:19 | 38.90759 | -9.00516 | 7932 ft | 276 kts | 42° |
| 2026-05-05 14:20 | 38.92149 | -8.98783 | 8857 ft | 280 kts | 42° |
| 2026-05-05 14:20 | 38.93557 | -8.97027 | 9748 ft | 285 kts | 41° |
| 2026-05-05 14:20 | 38.94998 | -8.95229 | 10470 ft | 296 kts | 41° |
| 2026-05-05 14:20 | 38.96536 | -8.93318 | 10820 ft | 320 kts | 41° |
| 2026-05-05 14:21 | 38.98157 | -8.91300 | 11346 ft | 335 kts | 41° |
| 2026-05-05 14:21 | 38.99846 | -8.89187 | 12099 ft | 342 kts | 41° |
| 2026-05-05 14:21 | 39.01564 | -8.87035 | 12868 ft | 348 kts | 41° |
| 2026-05-05 14:21 | 39.03306 | -8.84848 | 13614 ft | 352 kts | 40° |
| 2026-05-05 14:22 | 39.05069 | -8.82630 | 14334 ft | 357 kts | 40° |
| 2026-05-05 14:22 | 39.06856 | -8.80383 | 15044 ft | 362 kts | 40° |
| 2026-05-05 14:22 | 39.08667 | -8.78108 | 15736 ft | 366 kts | 40° |
| 2026-05-05 14:22 | 39.10478 | -8.75835 | 16408 ft | 371 kts | 39° |
| 2026-05-05 14:23 | 39.12334 | -8.73501 | 17069 ft | 375 kts | 39° |
| 2026-05-05 14:23 | 39.14207 | -8.71142 | 17716 ft | 379 kts | 39° |
| 2026-05-05 14:23 | 39.16103 | -8.68755 | 18336 ft | 384 kts | 39° |
| 2026-05-05 14:23 | 39.18027 | -8.66335 | 18965 ft | 388 kts | 39° |
| 2026-05-05 14:24 | 39.19964 | -8.63895 | 19574 ft | 392 kts | 38° |
| 2026-05-05 14:24 | 39.21927 | -8.61422 | 20149 ft | 396 kts | 38° |
| 2026-05-05 14:24 | 39.23909 | -8.58921 | 20723 ft | 401 kts | 38° |
| 2026-05-05 14:24 | 39.25909 | -8.56391 | 21269 ft | 405 kts | 38° |
| 2026-05-05 14:25 | 39.27929 | -8.53834 | 21794 ft | 409 kts | 38° |
| 2026-05-05 14:25 | 39.29940 | -8.51291 | 22302 ft | 413 kts | 37° |
| 2026-05-05 14:25 | 39.31998 | -8.48687 | 22808 ft | 417 kts | 37° |
| 2026-05-05 14:25 | 39.34076 | -8.46050 | 23301 ft | 420 kts | 37° |
| 2026-05-05 14:26 | 39.36172 | -8.43388 | 23776 ft | 424 kts | 37° |
| 2026-05-05 14:26 | 39.38284 | -8.40701 | 24239 ft | 428 kts | 36° |
| 2026-05-05 14:26 | 39.40410 | -8.37993 | 24709 ft | 431 kts | 36° |
| 2026-05-05 14:26 | 39.42554 | -8.35261 | 25150 ft | 434 kts | 36° |
| 2026-05-05 14:27 | 39.44713 | -8.32508 | 25569 ft | 438 kts | 36° |
| 2026-05-05 14:27 | 39.46862 | -8.29770 | 25972 ft | 441 kts | 36° |
| 2026-05-05 14:27 | 39.49050 | -8.26983 | 26370 ft | 444 kts | 36° |
| 2026-05-05 14:27 | 39.51262 | -8.24160 | 26766 ft | 447 kts | 36° |
| 2026-05-05 14:28 | 39.53483 | -8.21321 | 27169 ft | 450 kts | 36° |
| 2026-05-05 14:28 | 39.55718 | -8.18460 | 27548 ft | 453 kts | 36° |
| 2026-05-05 14:28 | 39.57961 | -8.15580 | 27939 ft | 456 kts | 36° |
| 2026-05-05 14:28 | 39.60220 | -8.12675 | 28295 ft | 459 kts | 36° |
| 2026-05-05 14:29 | 39.62495 | -8.09750 | 28666 ft | 462 kts | 36° |
| 2026-05-05 14:29 | 39.64780 | -8.06811 | 29033 ft | 464 kts | 36° |
| 2026-05-05 14:29 | 39.67079 | -8.03853 | 29379 ft | 467 kts | 36° |
| 2026-05-05 14:29 | 39.69363 | -8.00915 | 29711 ft | 469 kts | 36° |
| 2026-05-05 14:30 | 39.71686 | -7.97924 | 30030 ft | 472 kts | 36° |
| 2026-05-05 14:30 | 39.74027 | -7.94904 | 30334 ft | 475 kts | 36° |
| 2026-05-05 14:30 | 39.76377 | -7.91869 | 30622 ft | 478 kts | 37° |
| 2026-05-05 14:30 | 39.78738 | -7.88820 | 30912 ft | 480 kts | 37° |
| 2026-05-05 14:31 | 39.81113 | -7.85743 | 31178 ft | 483 kts | 37° |
| 2026-05-05 14:31 | 39.83498 | -7.82653 | 31457 ft | 485 kts | 37° |
| 2026-05-05 14:31 | 39.85892 | -7.79550 | 31753 ft | 487 kts | 37° |
| 2026-05-05 14:31 | 39.88256 | -7.76477 | 32143 ft | 486 kts | 37° |
| 2026-05-05 14:32 | 39.90644 | -7.73366 | 32519 ft | 486 kts | 37° |
| 2026-05-05 14:32 | 39.93033 | -7.70251 | 32868 ft | 486 kts | 37° |
| 2026-05-05 14:32 | 39.95424 | -7.67133 | 33217 ft | 486 kts | 37° |
| 2026-05-05 14:32 | 39.97814 | -7.64018 | 33553 ft | 486 kts | 37° |
| 2026-05-05 14:33 | 40.00207 | -7.60899 | 33884 ft | 487 kts | 38° |
| 2026-05-05 14:33 | 40.02601 | -7.57775 | 34247 ft | 487 kts | 38° |
| 2026-05-05 14:33 | 40.04988 | -7.54653 | 34639 ft | 485 kts | 38° |
| 2026-05-05 14:33 | 40.07338 | -7.51575 | 35010 ft | 484 kts | 38° |
| 2026-05-05 14:34 | 40.09713 | -7.48459 | 35336 ft | 484 kts | 39° |
| 2026-05-05 14:34 | 40.12085 | -7.45340 | 35679 ft | 483 kts | 39° |
| 2026-05-05 14:34 | 40.14452 | -7.42228 | 35990 ft | 483 kts | 39° |
| 2026-05-05 14:34 | 40.16818 | -7.39119 | 36281 ft | 482 kts | 39° |
| 2026-05-05 14:35 | 40.19185 | -7.36007 | 36535 ft | 483 kts | 39° |
| 2026-05-05 14:35 | 40.21552 | -7.32896 | 36835 ft | 481 kts | 39° |
| 2026-05-05 14:35 | 40.23902 | -7.29802 | 37228 ft | 477 kts | 40° |
| 2026-05-05 14:35 | 40.26233 | -7.26721 | 37570 ft | 475 kts | 40° |
| 2026-05-05 14:36 | 40.28554 | -7.23649 | 37816 ft | 475 kts | 40° |
| 2026-05-05 14:36 | 40.30851 | -7.20613 | 38014 ft | 475 kts | 40° |
| 2026-05-05 14:36 | 40.35495 | -7.14451 | 38071 ft | 475 kts | 41° |
| 2026-05-05 14:37 | 40.40132 | -7.08284 | 38072 ft | 475 kts | 40° |
| 2026-05-05 14:37 | 40.44775 | -7.02117 | 38071 ft | 475 kts | 41° |
| 2026-05-05 14:38 | 40.49388 | -6.95977 | 38073 ft | 475 kts | 41° |
| 2026-05-05 14:38 | 40.54021 | -6.89784 | 38069 ft | 476 kts | 41° |
| 2026-05-05 14:39 | 40.58666 | -6.83557 | 38070 ft | 477 kts | 41° |
| 2026-05-05 14:39 | 40.63309 | -6.77325 | 38070 ft | 477 kts | 41° |
| 2026-05-05 14:40 | 40.67953 | -6.71082 | 38064 ft | 477 kts | 41° |
| 2026-05-05 14:40 | 40.72565 | -6.64869 | 38061 ft | 477 kts | 41° |
| 2026-05-05 14:41 | 40.77206 | -6.58601 | 38059 ft | 478 kts | 41° |
| 2026-05-05 14:41 | 40.81849 | -6.52315 | 38054 ft | 478 kts | 41° |
| 2026-05-05 14:42 | 40.86480 | -6.46025 | 38053 ft | 478 kts | 41° |
| 2026-05-05 14:42 | 40.91108 | -6.39730 | 38051 ft | 478 kts | 42° |
| 2026-05-05 14:43 | 40.95709 | -6.33458 | 38053 ft | 478 kts | 42° |
| 2026-05-05 14:43 | 41.00364 | -6.27183 | 38052 ft | 477 kts | 40° |
| 2026-05-05 14:44 | 41.05241 | -6.21264 | 38053 ft | 475 kts | 37° |
| 2026-05-05 14:44 | 41.10227 | -6.15535 | 38050 ft | 474 kts | 37° |
| 2026-05-05 14:45 | 41.15170 | -6.09741 | 38049 ft | 474 kts | 38° |
| 2026-05-05 14:45 | 41.20021 | -6.03902 | 38046 ft | 475 kts | 38° |
| 2026-05-05 14:46 | 41.24900 | -5.97994 | 38045 ft | 474 kts | 38° |
| 2026-05-05 14:46 | 41.29791 | -5.92101 | 38032 ft | 475 kts | 38° |
| 2026-05-05 14:47 | 41.34654 | -5.86239 | 38032 ft | 475 kts | 39° |
| 2026-05-05 14:47 | 41.39549 | -5.80327 | 38035 ft | 475 kts | 39° |
| 2026-05-05 14:48 | 41.44445 | -5.74410 | 38038 ft | 475 kts | 39° |
| 2026-05-05 14:48 | 41.49332 | -5.68477 | 38036 ft | 475 kts | 39° |
| 2026-05-05 14:49 | 41.53597 | -5.61707 | 38031 ft | 481 kts | 57° |
| 2026-05-05 14:49 | 41.56451 | -5.53663 | 38030 ft | 483 kts | 64° |
| 2026-05-05 14:50 | 41.59181 | -5.45461 | 38022 ft | 483 kts | 64° |
| 2026-05-05 14:50 | 41.61913 | -5.37257 | 38013 ft | 483 kts | 64° |
| 2026-05-05 14:51 | 41.64634 | -5.29040 | 38007 ft | 484 kts | 65° |
| 2026-05-05 14:51 | 41.67328 | -5.20858 | 38006 ft | 484 kts | 65° |
| 2026-05-05 14:52 | 41.70039 | -5.12601 | 38001 ft | 485 kts | 65° |
| 2026-05-05 14:52 | 41.72745 | -5.04339 | 38000 ft | 485 kts | 65° |
| 2026-05-05 14:53 | 41.75453 | -4.96049 | 37998 ft | 486 kts | 65° |
| 2026-05-05 14:53 | 41.78134 | -4.87808 | 37993 ft | 486 kts | 65° |
| 2026-05-05 14:54 | 41.80828 | -4.79492 | 37989 ft | 487 kts | 65° |
| 2026-05-05 14:54 | 41.83524 | -4.71160 | 37993 ft | 487 kts | 66° |
| 2026-05-05 14:55 | 41.86218 | -4.62814 | 37993 ft | 487 kts | 66° |
| 2026-05-05 14:55 | 41.88905 | -4.54463 | 37999 ft | 488 kts | 66° |
| 2026-05-05 14:56 | 41.91565 | -4.46157 | 38002 ft | 488 kts | 66° |
| 2026-05-05 14:56 | 41.94238 | -4.37779 | 38005 ft | 488 kts | 66° |
| 2026-05-05 14:57 | 41.96906 | -4.29393 | 38010 ft | 488 kts | 66° |
| 2026-05-05 14:57 | 41.99577 | -4.20994 | 38013 ft | 488 kts | 66° |
| 2026-05-05 14:58 | 42.02222 | -4.12653 | 38014 ft | 488 kts | 66° |
| 2026-05-05 14:58 | 42.04971 | -4.04310 | 38016 ft | 488 kts | 64° |
| 2026-05-05 14:59 | 42.06934 | -3.98803 | 38014 ft | 488 kts | 63° |
| 2026-05-05 14:59 | 42.10903 | -3.87882 | 38014 ft | 488 kts | 64° |
| 2026-05-05 15:00 | 42.13335 | -3.81027 | 38016 ft | 488 kts | 64° |
| 2026-05-05 15:00 | 42.16681 | -3.71409 | 38015 ft | 488 kts | 64° |
| 2026-05-05 15:01 | 42.19549 | -3.63119 | 38015 ft | 488 kts | 64° |
| 2026-05-05 15:01 | 42.22429 | -3.54844 | 38019 ft | 487 kts | 64° |
| 2026-05-05 15:02 | 42.25291 | -3.46617 | 38019 ft | 487 kts | 64° |
| 2026-05-05 15:02 | 42.28159 | -3.38331 | 38021 ft | 487 kts | 65° |
| 2026-05-05 15:03 | 42.31016 | -3.30018 | 38020 ft | 488 kts | 65° |
| 2026-05-05 15:03 | 42.33868 | -3.21706 | 38022 ft | 488 kts | 65° |
| 2026-05-05 15:04 | 42.36702 | -3.13440 | 38027 ft | 488 kts | 65° |
| 2026-05-05 15:04 | 42.39554 | -3.05110 | 38026 ft | 488 kts | 65° |
| 2026-05-05 15:05 | 42.43832 | -2.92625 | 38025 ft | 488 kts | 62° |
| 2026-05-05 15:06 | 42.47776 | -2.85222 | 38032 ft | 484 kts | 43° |
| 2026-05-05 15:06 | 42.52728 | -2.79183 | 38033 ft | 482 kts | 39° |
| 2026-05-05 15:07 | 42.57736 | -2.73163 | 38031 ft | 481 kts | 39° |
| 2026-05-05 15:07 | 42.62736 | -2.67115 | 38029 ft | 481 kts | 40° |
| 2026-05-05 15:08 | 42.67723 | -2.61071 | 38026 ft | 481 kts | 39° |
| 2026-05-05 15:08 | 42.72677 | -2.55057 | 38026 ft | 480 kts | 40° |
| 2026-05-05 15:09 | 42.77656 | -2.49002 | 38036 ft | 480 kts | 40° |
| 2026-05-05 15:09 | 42.82640 | -2.42934 | 38028 ft | 480 kts | 40° |
| 2026-05-05 15:10 | 42.87613 | -2.36854 | 38034 ft | 480 kts | 40° |
| 2026-05-05 15:10 | 42.92543 | -2.30812 | 38028 ft | 480 kts | 40° |
| 2026-05-05 15:11 | 42.97501 | -2.24725 | 38029 ft | 479 kts | 40° |
| 2026-05-05 15:11 | 43.02453 | -2.18627 | 38030 ft | 479 kts | 40° |
| 2026-05-05 15:12 | 43.07398 | -2.12513 | 38035 ft | 479 kts | 40° |
| 2026-05-05 15:12 | 43.12341 | -2.06393 | 38040 ft | 479 kts | 40° |
| 2026-05-05 15:13 | 43.17236 | -2.00326 | 38038 ft | 478 kts | 41° |
| 2026-05-05 15:13 | 43.22164 | -1.94207 | 38037 ft | 478 kts | 41° |
| 2026-05-05 15:14 | 43.27086 | -1.88083 | 38038 ft | 478 kts | 41° |
| 2026-05-05 15:14 | 43.31768 | -1.81607 | 38040 ft | 479 kts | 52° |
| 2026-05-05 15:15 | 43.35472 | -1.74080 | 38043 ft | 479 kts | 56° |
| 2026-05-05 15:15 | 43.37318 | -1.70271 | 37901 ft | 480 kts | 56° |
| 2026-05-05 15:15 | 43.39190 | -1.66422 | 36967 ft | 488 kts | 56° |
| 2026-05-05 15:15 | 43.41083 | -1.62537 | 36113 ft | 491 kts | 56° |
| 2026-05-05 15:16 | 43.42991 | -1.58624 | 35156 ft | 495 kts | 56° |
| 2026-05-05 15:16 | 43.44929 | -1.54672 | 34183 ft | 500 kts | 54° |
| 2026-05-05 15:16 | 43.47150 | -1.51070 | 33433 ft | 499 kts | 44° |
| 2026-05-05 15:16 | 43.49762 | -1.47990 | 32830 ft | 492 kts | 35° |
| 2026-05-05 15:17 | 43.52522 | -1.45232 | 32171 ft | 489 kts | 35° |
| 2026-05-05 15:17 | 43.55269 | -1.42496 | 31527 ft | 485 kts | 35° |
| 2026-05-05 15:17 | 43.58000 | -1.39781 | 30882 ft | 481 kts | 35° |
| 2026-05-05 15:17 | 43.60699 | -1.37097 | 30256 ft | 477 kts | 35° |
| 2026-05-05 15:18 | 43.63380 | -1.34431 | 29636 ft | 473 kts | 35° |
| 2026-05-05 15:18 | 43.66035 | -1.31792 | 29019 ft | 469 kts | 35° |
| 2026-05-05 15:18 | 43.68635 | -1.29205 | 28405 ft | 465 kts | 36° |
| 2026-05-05 15:18 | 43.71224 | -1.26623 | 27800 ft | 451 kts | 36° |
| 2026-05-05 15:19 | 43.73734 | -1.24115 | 27255 ft | 442 kts | 36° |
| 2026-05-05 15:19 | 43.76217 | -1.21631 | 26695 ft | 438 kts | 36° |
| 2026-05-05 15:19 | 43.78668 | -1.19171 | 26155 ft | 433 kts | 36° |
| 2026-05-05 15:19 | 43.81093 | -1.16735 | 25628 ft | 429 kts | 37° |
| 2026-05-05 15:20 | 43.83492 | -1.14329 | 25136 ft | 424 kts | 37° |
| 2026-05-05 15:20 | 43.85863 | -1.11949 | 24628 ft | 419 kts | 37° |
| 2026-05-05 15:20 | 43.88213 | -1.09588 | 24132 ft | 414 kts | 37° |
| 2026-05-05 15:20 | 43.90498 | -1.07289 | 23634 ft | 410 kts | 37° |
| 2026-05-05 15:21 | 43.92795 | -1.04976 | 23119 ft | 406 kts | 37° |
| 2026-05-05 15:21 | 43.95073 | -1.02679 | 22605 ft | 403 kts | 37° |
| 2026-05-05 15:21 | 43.97332 | -1.00396 | 22084 ft | 401 kts | 37° |
| 2026-05-05 15:21 | 43.99575 | -0.98128 | 21571 ft | 398 kts | 37° |
| 2026-05-05 15:22 | 44.01810 | -0.95869 | 21047 ft | 396 kts | 37° |
| 2026-05-05 15:22 | 44.04028 | -0.93622 | 20514 ft | 393 kts | 37° |
| 2026-05-05 15:22 | 44.06202 | -0.91413 | 19995 ft | 391 kts | 37° |
| 2026-05-05 15:22 | 44.08388 | -0.89191 | 19477 ft | 388 kts | 37° |
| 2026-05-05 15:23 | 44.10562 | -0.86979 | 18957 ft | 386 kts | 37° |
| 2026-05-05 15:23 | 44.12721 | -0.84780 | 18449 ft | 384 kts | 37° |
| 2026-05-05 15:23 | 44.14865 | -0.82597 | 17942 ft | 381 kts | 36° |
| 2026-05-05 15:23 | 44.17002 | -0.80421 | 17446 ft | 379 kts | 36° |
| 2026-05-05 15:24 | 44.19123 | -0.78263 | 16944 ft | 377 kts | 36° |
| 2026-05-05 15:24 | 44.21232 | -0.76119 | 16468 ft | 374 kts | 36° |
| 2026-05-05 15:24 | 44.23326 | -0.73984 | 15988 ft | 372 kts | 36° |
| 2026-05-05 15:24 | 44.25379 | -0.71887 | 15513 ft | 369 kts | 36° |
| 2026-05-05 15:25 | 44.27438 | -0.69773 | 15047 ft | 366 kts | 36° |
| 2026-05-05 15:25 | 44.29488 | -0.67782 | 14640 ft | 351 kts | 33° |
| 2026-05-05 15:25 | 44.31537 | -0.65959 | 14280 ft | 348 kts | 31° |
| 2026-05-05 15:25 | 44.33593 | -0.64200 | 13880 ft | 342 kts | 30° |
| 2026-05-05 15:26 | 44.35613 | -0.62498 | 13504 ft | 339 kts | 30° |
| 2026-05-05 15:26 | 44.37640 | -0.60788 | 13149 ft | 339 kts | 30° |
| 2026-05-05 15:26 | 44.39623 | -0.59093 | 12769 ft | 338 kts | 31° |
| 2026-05-05 15:26 | 44.41608 | -0.57376 | 12400 ft | 333 kts | 31° |
| 2026-05-05 15:27 | 44.43566 | -0.55662 | 12038 ft | 331 kts | 32° |
| 2026-05-05 15:27 | 44.45523 | -0.53957 | 11671 ft | 330 kts | 31° |
| 2026-05-05 15:27 | 44.47459 | -0.52274 | 11311 ft | 328 kts | 31° |
| 2026-05-05 15:27 | 44.49389 | -0.50581 | 10959 ft | 326 kts | 31° |
| 2026-05-05 15:28 | 44.51308 | -0.48892 | 10604 ft | 325 kts | 31° |
| 2026-05-05 15:28 | 44.53215 | -0.47213 | 10256 ft | 323 kts | 31° |
| 2026-05-05 15:28 | 44.55133 | -0.45744 | 10068 ft | 313 kts | 20° |
| 2026-05-05 15:28 | 44.57153 | -0.44888 | 9689 ft | 298 kts | 8° |
| 2026-05-05 15:29 | 44.59178 | -0.44351 | 9545 ft | 295 kts | 8° |
| 2026-05-05 15:29 | 44.61187 | -0.43802 | 9357 ft | 293 kts | 8° |
| 2026-05-05 15:29 | 44.63191 | -0.43248 | 9052 ft | 292 kts | 8° |
| 2026-05-05 15:29 | 44.65177 | -0.42695 | 8718 ft | 290 kts | 8° |
| 2026-05-05 15:30 | 44.67150 | -0.42142 | 8396 ft | 288 kts | 8° |
| 2026-05-05 15:30 | 44.69110 | -0.41577 | 8076 ft | 288 kts | 9° |
| 2026-05-05 15:30 | 44.71034 | -0.41034 | 7759 ft | 285 kts | 7° |
| 2026-05-05 15:30 | 44.72965 | -0.40504 | 7440 ft | 285 kts | 8° |
| 2026-05-05 15:31 | 44.74891 | -0.39964 | 7114 ft | 282 kts | 8° |
| 2026-05-05 15:31 | 44.76785 | -0.39430 | 6806 ft | 282 kts | 8° |
| 2026-05-05 15:31 | 44.78689 | -0.38911 | 6491 ft | 280 kts | 8° |
| 2026-05-05 15:31 | 44.80573 | -0.38384 | 6177 ft | 278 kts | 8° |
| 2026-05-05 15:32 | 44.82354 | -0.37887 | 5886 ft | 277 kts | 8° |
| 2026-05-05 15:32 | 44.84224 | -0.37364 | 5580 ft | 274 kts | 8° |
| 2026-05-05 15:32 | 44.86000 | -0.36867 | 5459 ft | 259 kts | 7° |
| 2026-05-05 15:32 | 44.87713 | -0.36464 | 5313 ft | 248 kts | 358° |
| 2026-05-05 15:33 | 44.89286 | -0.36716 | 5116 ft | 236 kts | 339° |
| 2026-05-05 15:33 | 44.90716 | -0.37687 | 4995 ft | 229 kts | 320° |
| 2026-05-05 15:33 | 44.91890 | -0.39183 | 4832 ft | 227 kts | 312° |
| 2026-05-05 15:33 | 44.93014 | -0.40741 | 4612 ft | 226 kts | 312° |
| 2026-05-05 15:34 | 44.94132 | -0.42293 | 4388 ft | 225 kts | 312° |
| 2026-05-05 15:34 | 44.95247 | -0.43838 | 4156 ft | 224 kts | 312° |
| 2026-05-05 15:34 | 44.96344 | -0.45354 | 3926 ft | 224 kts | 313° |
| 2026-05-05 15:34 | 44.97392 | -0.46936 | 3690 ft | 216 kts | 299° |
| 2026-05-05 15:35 | 44.97777 | -0.48870 | 3462 ft | 200 kts | 266° |
| 2026-05-05 15:35 | 44.97362 | -0.50666 | 3224 ft | 192 kts | 236° |
| 2026-05-05 15:35 | 44.96486 | -0.52022 | 3056 ft | 182 kts | 227° |
| 2026-05-05 15:35 | 44.95638 | -0.53223 | 2976 ft | 168 kts | 228° |
| 2026-05-05 15:36 | 44.94856 | -0.54338 | 2967 ft | 152 kts | 228° |
| 2026-05-05 15:36 | 44.94158 | -0.55341 | 2917 ft | 141 kts | 229° |
| 2026-05-05 15:36 | 44.93490 | -0.56302 | 2792 ft | 137 kts | 229° |
| 2026-05-05 15:36 | 44.92824 | -0.57260 | 2641 ft | 136 kts | 229° |
| 2026-05-05 15:37 | 44.92162 | -0.58212 | 2470 ft | 136 kts | 229° |
| 2026-05-05 15:37 | 44.91503 | -0.59157 | 2303 ft | 136 kts | 228° |
| 2026-05-05 15:37 | 44.90840 | -0.60108 | 2126 ft | 136 kts | 229° |
| 2026-05-05 15:37 | 44.90186 | -0.61048 | 1957 ft | 131 kts | 228° |
| 2026-05-05 15:38 | 44.89566 | -0.61938 | 1771 ft | 129 kts | 228° |
| 2026-05-05 15:38 | 44.88931 | -0.62849 | 1596 ft | 129 kts | 228° |
| 2026-05-05 15:38 | 44.88311 | -0.63737 | 1428 ft | 129 kts | 228° |
| 2026-05-05 15:38 | 44.87691 | -0.64625 | 1257 ft | 129 kts | 228° |
| 2026-05-05 15:39 | 44.87113 | -0.65456 | 1097 ft | 129 kts | 228° |
| 2026-05-05 15:39 | 44.86488 | -0.66355 | 934 ft | 129 kts | 227° |
| 2026-05-05 15:39 | 44.85860 | -0.67247 | 757 ft | 129 kts | 227° |
| 2026-05-05 15:39 | 44.85232 | -0.68142 | 584 ft | 129 kts | 228° |
| 2026-05-05 15:40 | 44.84650 | -0.68989 | 437 ft | 129 kts | 226° |
| 2026-05-05 15:40 | 44.84021 | -0.69881 | 246 ft | 128 kts | 227° |
| 2026-05-05 15:40 | 44.83421 | -0.70735 | 165 ft | 119 kts | 225° |
| 2026-05-05 15:40 | 44.82962 | -0.71403 | 161 ft | 72 kts | 224° |
| 2026-05-05 15:41 | 44.82699 | -0.71772 | 166 ft | 31 kts | 225° |
| 2026-05-05 15:41 | 44.82578 | -0.71932 | 164 ft | 17 kts | 198° |
| 2026-05-05 15:41 | 44.82497 | -0.71838 | 161 ft | 8 kts | 128° |
| 2026-05-05 15:41 | 44.82469 | -0.71787 | 162 ft | 6 kts | 128° |
| 2026-05-05 15:42 | 44.82450 | -0.71752 | 163 ft | 3 kts | 124° |
| 2026-05-05 15:42 | 44.82438 | -0.71708 | 163 ft | 9 kts | 101° |
| 2026-05-05 15:42 | 44.82497 | -0.71605 | 165 ft | 18 kts | 44° |
| 2026-05-05 15:42 | 44.82590 | -0.71476 | 164 ft | 18 kts | 44° |
| 2026-05-05 15:43 | 44.82684 | -0.71345 | 162 ft | 17 kts | 44° |
| 2026-05-05 15:43 | 44.82759 | -0.71241 | 158 ft | 16 kts | 44° |
| 2026-05-05 15:43 | 44.82828 | -0.71141 | 159 ft | 13 kts | 48° |
| 2026-05-05 15:43 | 44.82885 | -0.71058 | 160 ft | 12 kts | 45° |
| 2026-05-05 15:44 | 44.82940 | -0.70965 | 162 ft | 11 kts | 73° |
| 2026-05-05 15:44 | 44.82923 | -0.70847 | 163 ft | 17 kts | 107° |
| 2026-05-05 15:44 | 44.82889 | -0.70688 | 163 ft | 17 kts | 107° |
| 2026-05-05 15:44 | 44.82858 | -0.70528 | 163 ft | 15 kts | 91° |
| 2026-05-05 15:45 | 44.82892 | -0.70406 | 163 ft | 12 kts | 99° |
| 2026-05-05 15:45 | 44.82870 | -0.70301 | 163 ft | 10 kts | 107° |
| 2026-05-05 15:45 | 44.82882 | -0.70248 | 163 ft | 4 kts | 30° |
| 2026-05-05 15:45 | 44.82901 | -0.70228 | 163 ft | 3 kts | 47° |
| 2026-05-05 15:46 | 44.82911 | -0.70209 | 163 ft | 1 kts | 54° |
| 2026-05-05 15:46 | 44.82913 | -0.70204 | 163 ft | 0 kts | 54° |